Franklin, KY (42134)

1:48 PM CDT on September 01, 2014 (GMT -0500)
Friendship Rd.- NE Cross Plains | Change Station
CLOSE
Current Station
Personal Weather Station
Location: Cross Plains, TN
Elevation: 757 ft
Nearby Weather Stations

Elev 757 ft 36.57 °N, 86.67 °W | Updated 9 seconds ago

Partly Cloudy
Partly Cloudy
88.1 °F
Feels Like 97 °F
N
9.0
Wind Variable Wind from SW
Gusts 18.0 mph

Today
High -- | Low -- °F
--% Chance of Precip.
Yesterday
High -- | Low -- °F
Precip. -- in
6:17 AM 7:14 PM
Waxing Crescent, 43% visible
Pressure 30.00 in
Visibility 10.0 miles
Clouds Few 4000 ft
Heat Index 97 °F
Dew Point 74 °F
Humidity 64%
Rainfall 0.00 in
Snow Depth Not available.
UV 9 out of 12
Pollen 11.10 out of 12
Air Quality Not available.
Flu Activity Not available.
METAR KBWG 011753Z AUTO 22014KT 10SM FEW040 30/22 A3002 RMK AO2 RAE06 SLP158 P0001 60008 T03000222 10300 20233 58013

More Conditions Fewer Conditions

Pressure 30.00 in
Visibility 10.0 miles
Clouds Few 4000 ft
Heat Index 97 °F
Dew Point 74 °F
Humidity 64%
Rainfall 0.00 in
Snow Depth Not available.
UV 9 out of 12
Pollen 11.10 out of 12
Air Quality Not available.
Flu Activity Not available.
METAR KBWG 011753Z AUTO 22014KT 10SM FEW040 30/22 A3002 RMK AO2 RAE06 SLP158 P0001 60008 T03000222 10300 20233 58013

More Conditions Fewer Conditions

10-Day Weather Forecast

Almanac

Astronomy

Sep. 01, 2014 Rise Set
Actual Time 6:17 AM CDT 7:14 PM CDT
Civil Twilight 5:50 AM CDT 7:40 PM CDT
Nautical Twilight 5:19 AM CDT 8:12 PM CDT
Astronomical Twilight 4:47 AM CDT 8:44 PM CDT
Moon 12:52 PM CDT 11:25 PM CDT
Length of Visible Light 13h 50m
Length of Day
12h 57m
Tomorrow will be 2m 15s shorter.
Waxing Crescent, 43% of the Moon is Illuminated
Today
Waxing Crescent
Sep 2
First Quarter
Sep 8
Full
Sep 15
Last Quarter
Sep 24
New

Today's Extremes

State Highs State Lows

Community

WunderPhotos

Upload Photos

1,749,359 photos uploaded!

Nearby

Snow Depth

Station Depth Elevation
No new snow has been reported.

Earthquake Activity

City Distance Mag. Time & Date
No recent earthquake activity has been reported nearby.
Minimum magnitude displayed is 2.5.

Coastal Water Temperatures

Place Temperature
No Stations Reporting

Nearby Weather Stations